Time;durP1;ratioP1;P1;durP2;ratioP2;P2;SDS_P1;SDS_P2;PMS_P1;PMS_P2;Temp;Humidity;BMP_temperature;BMP_pressure;BME280_temperature;BME280_humidity;BME280_pressure;Samples;Min_cycle;Max_cycle;Signal;HPM_P1;HPM_P2
2022/09/11 00:00:43;;;;;;;5.30;3.53;;;;;;;23.98;59.40;99280.41;3145882;28;20052;-67
2022/09/11 00:02:16;;;;;;;8.82;4.13;;;;;;;23.96;59.70;99277.13;3145540;28;20067;-67
2022/09/11 00:03:48;;;;;;;11.50;4.47;;;;;;;23.97;59.51;99280.59;3145671;28;20059;-67
2022/09/11 00:05:19;;;;;;;7.15;3.97;;;;;;;23.96;59.38;99277.13;3145761;28;20162;-67
2022/09/11 00:06:52;;;;;;;9.13;4.05;;;;;;;23.94;59.55;99273.78;3145703;28;20044;-67
2022/09/11 00:08:23;;;;;;;8.25;3.92;;;;;;;23.93;59.44;99276.59;3145797;28;20049;-68
2022/09/11 00:09:55;;;;;;;10.38;3.83;;;;;;;23.88;59.94;99278.97;3145689;28;20438;-68
2022/09/11 00:11:29;;;;;;;8.05;4.05;;;;;;;23.86;59.57;99271.13;3141337;28;20044;-68
2022/09/11 00:13:00;;;;;;;8.38;4.53;;;;;;;23.87;59.96;99271.97;3145653;28;20052;-67
2022/09/11 00:14:31;;;;;;;8.02;3.50;;;;;;;23.82;60.07;99281.28;3145725;28;20048;-67
2022/09/11 00:16:04;;;;;;;11.43;3.97;;;;;;;23.82;59.92;99280.44;3145328;28;20121;-67
2022/09/11 00:17:36;;;;;;;8.95;4.03;;;;;;;23.78;60.19;99279.09;3145864;28;20049;-67
2022/09/11 00:19:11;;;;;;;7.38;4.28;;;;;;;23.78;60.28;99284.44;3145439;28;20456;-67
2022/09/11 00:20:49;;;;;;;12.52;4.40;;;;;;;23.75;60.24;99287.41;3145439;28;20052;-68
2022/09/11 00:22:22;;;;;;;9.23;4.07;;;;;;;23.74;59.83;99278.63;3138150;28;20127;-68
2022/09/11 00:23:54;;;;;;;8.32;3.80;;;;;;;23.74;59.73;99280.44;3145427;28;20048;-67
2022/09/11 00:25:26;;;;;;;7.85;4.10;;;;;;;23.71;59.64;99281.59;3145704;28;20045;-67
2022/09/11 00:26:58;;;;;;;6.95;4.00;;;;;;;23.70;59.74;99271.97;3145571;28;20056;-67
2022/09/11 00:28:29;;;;;;;9.15;4.00;;;;;;;23.66;60.24;99278.56;3145607;28;20056;-65
2022/09/11 00:30:01;;;;;;;7.93;3.80;;;;;;;23.64;59.99;99272.63;3145661;28;20102;-65
2022/09/11 00:31:33;;;;;;;9.25;4.40;;;;;;;23.59;60.36;99274.94;3145166;28;20048;-65
2022/09/11 00:33:04;;;;;;;8.27;4.00;;;;;;;23.56;60.59;99275.25;3145118;28;20477;-67
2022/09/11 00:34:36;;;;;;;7.80;4.07;;;;;;;23.54;60.65;99275.41;3144306;28;20047;-67
2022/09/11 00:36:11;;;;;;;6.38;3.85;;;;;;;23.54;60.24;99275.41;3145437;28;20054;-67
2022/09/11 00:37:44;;;;;;;6.88;3.53;;;;;;;23.51;60.75;99278.41;3145046;28;20182;-67
2022/09/11 00:39:16;;;;;;;8.65;4.28;;;;;;;23.49;60.62;99268.97;3144874;28;20390;-67
2022/09/11 00:40:47;;;;;;;12.20;4.30;;;;;;;23.47;60.83;99274.44;3145315;28;20445;-66
2022/09/11 00:42:19;;;;;;;9.35;3.90;;;;;;;23.46;60.49;99280.75;3145501;28;20053;-66
2022/09/11 00:43:54;;;;;;;9.50;3.80;;;;;;;23.44;60.70;99285.38;3144895;28;20056;-66
2022/09/11 00:45:28;;;;;;;10.15;4.28;;;;;;;23.42;60.47;99284.72;3144933;28;20395;-67
2022/09/11 00:47:02;;;;;;;7.40;4.00;;;;;;;23.39;61.01;99272.59;3145119;28;20044;-67
2022/09/11 00:48:35;;;;;;;9.57;4.13;;;;;;;23.40;60.93;99281.41;3145337;28;20132;-68
2022/09/11 00:50:12;;;;;;;9.68;3.85;;;;;;;23.39;60.79;99280.56;3145146;28;20044;-67
2022/09/11 00:51:47;;;;;;;6.55;3.67;;;;;;;23.39;60.78;99267.25;3144844;28;20048;-67
2022/09/11 00:53:23;;;;;;;9.07;3.97;;;;;;;23.38;60.46;99272.75;3144906;28;20055;-67
2022/09/11 00:54:59;;;;;;;8.95;4.00;;;;;;;23.38;60.49;99265.63;3144933;28;20430;-67
2022/09/11 00:56:37;;;;;;;12.50;4.15;;;;;;;23.38;60.87;99265.63;3145188;28;20052;-67
2022/09/11 00:58:12;;;;;;;7.72;4.38;;;;;;;23.37;60.52;99266.63;3144870;28;20059;-66
2022/09/11 00:59:47;;;;;;;10.52;4.43;;;;;;;23.33;60.67;99264.44;3145092;28;20049;-67
2022/09/11 01:01:18;;;;;;;5.18;3.47;;;;;;;23.29;61.21;99260.47;3142447;28;20127;-67
2022/09/11 01:02:52;;;;;;;7.80;3.90;;;;;;;23.19;61.10;99260.63;3132434;28;20045;-67
2022/09/11 01:04:24;;;;;;;7.05;3.53;;;;;;;23.26;61.10;99266.94;3143887;28;20196;-67
2022/09/11 01:05:57;;;;;;;7.15;4.50;;;;;;;23.27;61.19;99265.94;3144736;28;20048;-67
2022/09/11 01:07:30;;;;;;;8.45;4.55;;;;;;;23.25;60.77;99267.09;3144451;28;21272;-67
2022/09/11 01:09:03;;;;;;;13.20;4.25;;;;;;;23.25;61.28;99264.44;3144675;28;20045;-67
2022/09/11 01:10:45;;;;;;;8.70;3.95;;;;;;;23.23;61.06;99261.13;3144379;28;20236;-67
2022/09/11 01:12:23;;;;;;;9.75;4.30;;;;;;;23.19;61.28;99257.09;3143623;28;20797;-67
2022/09/11 01:14:03;;;;;;;11.18;4.45;;;;;;;23.20;60.93;99251.66;3144123;28;20048;-66
2022/09/11 01:15:41;;;;;;;5.82;4.55;;;;;;;23.20;61.04;99253.47;3143828;28;20135;-67
2022/09/11 01:17:26;;;;;;;6.88;3.97;;;;;;;23.16;61.48;99243.19;3143369;28;20063;-66
2022/09/11 01:19:07;;;;;;;6.53;3.92;;;;;;;23.15;61.32;99252.13;3146670;28;20059;-67
2022/09/11 01:20:52;;;;;;;6.47;3.72;;;;;;;23.14;61.15;99245.16;3143802;28;20793;-67
2022/09/11 01:22:55;;;;;;;8.13;3.78;;;;;;;23.12;61.61;99246.31;3143469;28;20446;-67
2022/09/11 01:24:57;;;;;;;9.35;4.53;;;;;;;23.10;61.59;99248.28;3143794;28;20513;-67
2022/09/11 01:26:42;;;;;;;8.98;4.20;;;;;;;23.07;61.65;99259.25;3141384;28;20889;-67
2022/09/11 01:28:20;;;;;;;9.40;4.25;;;;;;;23.05;61.29;99247.97;3143860;28;20078;-67
2022/09/11 01:29:58;;;;;;;15.13;4.82;;;;;;;23.05;61.62;99240.00;3143570;28;20491;-66
2022/09/11 01:31:35;;;;;;;8.68;4.45;;;;;;;23.02;61.44;99237.69;3143633;28;20535;-66
2022/09/11 01:33:16;;;;;;;7.95;4.53;;;;;;;23.00;61.92;99237.00;3143833;28;20063;-66
2022/09/11 01:34:56;;;;;;;10.85;4.47;;;;;;;22.96;61.84;99233.03;3143812;28;20045;-66
2022/09/11 01:36:33;;;;;;;8.98;4.65;;;;;;;22.88;62.15;99226.66;3143766;28;20059;-66
2022/09/11 01:38:12;;;;;;;13.15;4.78;;;;;;;22.89;61.94;99233.66;3143360;28;20128;-66
2022/09/11 01:39:49;;;;;;;6.72;3.80;;;;;;;22.85;62.03;99229.63;3143420;28;20052;-66
2022/09/11 01:41:27;;;;;;;10.88;4.32;;;;;;;22.85;62.05;99234.13;3143680;28;20453;-66
2022/09/11 01:43:05;;;;;;;9.10;4.70;;;;;;;22.84;61.49;99227.97;3143683;28;20060;-66
2022/09/11 01:44:43;;;;;;;9.70;4.28;;;;;;;22.86;61.84;99236.59;3143781;28;20069;-66
2022/09/11 01:46:21;;;;;;;10.20;4.05;;;;;;;22.90;61.60;99242.44;3143485;28;20115;-66
2022/09/11 01:47:55;;;;;;;9.65;4.93;;;;;;;22.91;61.56;99234.28;3144511;28;20056;-68
2022/09/11 01:49:34;;;;;;;7.97;4.28;;;;;;;22.84;61.33;99220.00;3144586;28;20052;-67
2022/09/11 01:51:08;;;;;;;10.45;5.07;;;;;;;22.92;61.43;99233.31;3145116;28;20044;-67
2022/09/11 01:52:49;;;;;;;10.75;4.72;;;;;;;22.93;61.44;99237.63;3144822;28;20498;-67
2022/09/11 01:54:25;;;;;;;8.80;4.45;;;;;;;22.96;61.36;99241.00;3144709;28;20048;-65
2022/09/11 01:56:01;;;;;;;9.15;4.75;;;;;;;22.96;60.99;99243.66;3144453;28;20040;-66
2022/09/11 01:57:40;;;;;;;8.90;4.68;;;;;;;23.00;61.17;99242.31;3144364;28;20048;-66
2022/09/11 01:59:16;;;;;;;10.65;4.68;;;;;;;22.99;60.75;99243.31;3144788;28;20146;-65
2022/09/11 02:00:54;;;;;;;8.52;4.95;;;;;;;23.00;60.84;99247.63;3144262;28;20049;-67
2022/09/11 02:02:32;;;;;;;7.95;4.63;;;;;;;23.02;60.71;99245.66;3141665;28;20053;-68
2022/09/11 02:04:09;;;;;;;9.60;4.22;;;;;;;23.00;60.74;99248.44;3143895;28;20488;-65
2022/09/11 02:05:45;;;;;;;11.32;4.65;;;;;;;23.02;60.90;99251.78;3144346;28;20053;-66
2022/09/11 02:07:21;;;;;;;11.50;4.47;;;;;;;23.02;61.11;99245.66;3143964;28;20067;-66
2022/09/11 02:08:57;;;;;;;10.80;5.03;;;;;;;23.02;61.19;99240.34;3144203;28;20055;-66
2022/09/11 02:10:35;;;;;;;8.52;4.88;;;;;;;23.02;61.11;99240.34;3144637;28;20442;-66
2022/09/11 02:12:10;;;;;;;10.77;4.70;;;;;;;22.98;61.39;99254.91;3144550;28;20048;-66
2022/09/11 02:13:50;;;;;;;13.40;4.70;;;;;;;22.91;60.95;99239.59;3144405;28;20052;-66
2022/09/11 02:15:27;;;;;;;11.73;4.72;;;;;;;22.93;61.39;99245.59;3144195;28;20047;-66
2022/09/11 02:17:08;;;;;;;9.15;4.43;;;;;;;22.90;61.65;99253.06;3144381;28;20497;-66
2022/09/11 02:18:47;;;;;;;10.27;4.82;;;;;;;22.87;61.53;99251.53;3147001;28;20139;-66
2022/09/11 02:20:20;;;;;;;11.98;5.13;;;;;;;22.88;61.30;99250.53;3144585;28;20084;-67
2022/09/11 02:21:52;;;;;;;11.02;4.45;;;;;;;22.89;61.44;99252.22;3144390;28;20139;-67
2022/09/11 02:23:23;;;;;;;7.97;4.90;;;;;;;22.89;61.43;99249.56;3144347;28;20564;-67
2022/09/11 02:24:55;;;;;;;7.32;4.80;;;;;;;22.90;61.18;99247.75;3144471;28;20057;-67
2022/09/11 02:26:31;;;;;;;9.88;5.18;;;;;;;22.91;61.09;99246.75;3144629;28;20070;-67
2022/09/11 02:28:02;;;;;;;8.20;5.05;;;;;;;22.91;61.23;99250.22;3144119;28;20056;-67
2022/09/11 02:29:35;;;;;;;12.73;4.80;;;;;;;22.92;61.04;99262.53;3145469;28;20801;-68
2022/09/11 02:31:07;;;;;;;8.93;4.80;;;;;;;22.91;61.12;99262.66;3146821;28;20056;-67
2022/09/11 02:32:43;;;;;;;12.63;4.78;;;;;;;22.91;61.18;99262.66;3146858;28;20167;-67
2022/09/11 02:34:16;;;;;;;6.43;4.45;;;;;;;22.88;61.29;99265.66;3146802;28;20055;-67
2022/09/11 02:35:54;;;;;;;7.80;4.50;;;;;;;22.86;61.78;99257.81;3146326;28;20040;-67
2022/09/11 02:37:41;;;;;;;11.20;4.93;;;;;;;22.86;61.91;99263.13;3146729;28;20063;-67
2022/09/11 02:39:26;;;;;;;6.85;4.63;;;;;;;22.79;61.88;99264.78;3145602;28;20135;-67
2022/09/11 02:41:07;;;;;;;9.07;4.65;;;;;;;22.75;61.68;99266.13;3134543;28;20077;-67
2022/09/11 02:42:51;;;;;;;10.02;5.10;;;;;;;22.74;61.79;99268.91;3146445;28;20048;-67
2022/09/11 02:44:33;;;;;;;9.93;5.07;;;;;;;22.68;62.19;99265.06;3146780;28;20048;-67
2022/09/11 02:46:39;;;;;;;14.10;5.65;;;;;;;22.65;62.27;99271.53;3146493;28;20541;-67
2022/09/11 02:48:30;;;;;;;13.75;5.45;;;;;;;22.63;62.49;99265.56;3146310;28;20052;-66
2022/09/11 02:50:10;;;;;;;9.85;5.00;;;;;;;22.59;62.16;99274.00;3146391;28;20151;-66
2022/09/11 02:51:54;;;;;;;11.75;5.60;;;;;;;22.56;62.32;99266.34;3146605;28;20048;-66
2022/09/11 02:53:35;;;;;;;9.93;5.22;;;;;;;22.52;62.57;99272.97;3146570;28;20091;-66
2022/09/11 02:55:12;;;;;;;13.02;5.38;;;;;;;22.47;62.57;99266.31;3146528;28;20044;-65
2022/09/11 02:56:48;;;;;;;9.07;5.05;;;;;;;22.44;62.79;99266.63;3146586;28;20519;-65
2022/09/11 02:58:26;;;;;;;14.50;5.57;;;;;;;22.41;62.92;99266.13;3146349;28;20053;-65
2022/09/11 03:00:00;;;;;;;9.15;4.50;;;;;;;22.35;63.15;99264.09;3146037;28;20132;-66
2022/09/11 03:01:46;;;;;;;10.98;4.80;;;;;;;22.30;63.19;99264.56;3148718;28;20040;-65
2022/09/11 03:03:20;;;;;;;12.15;4.93;;;;;;;22.25;63.69;99261.56;3146604;28;20044;-65
2022/09/11 03:04:50;;;;;;;11.57;5.57;;;;;;;22.22;63.17;99264.53;3146155;28;20110;-66
2022/09/11 03:06:26;;;;;;;9.68;4.90;;;;;;;22.17;63.61;99266.81;3146888;28;20135;-65
2022/09/11 03:07:58;;;;;;;9.15;4.82;;;;;;;22.14;63.38;99267.91;3146445;28;20049;-66
2022/09/11 03:09:29;;;;;;;13.45;4.97;;;;;;;22.06;63.76;99253.78;3146100;28;20056;-66
2022/09/11 03:11:00;;;;;;;8.57;4.80;;;;;;;22.10;63.73;99269.25;3146123;28;20143;-67
2022/09/11 03:12:34;;;;;;;7.38;5.13;;;;;;;22.04;63.69;99257.44;3146305;28;20049;-67
2022/09/11 03:14:06;;;;;;;12.65;5.22;;;;;;;22.04;63.84;99252.13;3146291;28;20118;-67
2022/09/11 03:15:38;;;;;;;13.45;6.05;;;;;;;22.04;63.61;99270.69;3146166;28;20045;-67
2022/09/11 03:17:09;;;;;;;10.68;4.82;;;;;;;22.01;63.74;99257.75;3146281;28;20117;-67
2022/09/11 03:18:42;;;;;;;10.68;4.53;;;;;;;22.02;63.87;99267.34;3143466;28;20052;-67
2022/09/11 03:20:14;;;;;;;7.88;5.10;;;;;;;22.01;63.80;99263.03;3146306;28;20052;-66
2022/09/11 03:21:46;;;;;;;7.30;4.15;;;;;;;22.00;63.94;99263.19;3146207;28;20135;-67
2022/09/11 03:23:18;;;;;;;13.60;5.40;;;;;;;21.98;63.85;99263.34;3146497;28;20048;-67
2022/09/11 03:24:49;;;;;;;9.93;4.50;;;;;;;21.98;63.79;99265.19;3146183;28;20049;-67
2022/09/11 03:26:20;;;;;;;9.35;4.03;;;;;;;21.98;63.30;99262.53;3146174;28;20048;-67
2022/09/11 03:27:53;;;;;;;8.90;4.10;;;;;;;21.97;63.55;99263.50;3146177;28;20053;-67
2022/09/11 03:29:24;;;;;;;8.85;4.60;;;;;;;21.97;63.27;99269.63;3146487;28;20048;-67
2022/09/11 03:30:56;;;;;;;9.60;5.15;;;;;;;21.98;62.83;99266.00;3145981;28;20063;-66
2022/09/11 03:32:28;;;;;;;11.00;4.13;;;;;;;21.98;63.08;99271.31;3146250;28;20052;-67
2022/09/11 03:34:00;;;;;;;8.20;3.90;;;;;;;21.96;62.95;99272.44;3145650;28;20044;-67
2022/09/11 03:35:32;;;;;;;8.63;3.83;;;;;;;21.96;62.82;99275.94;3145971;28;20121;-66
2022/09/11 03:37:04;;;;;;;10.32;4.13;;;;;;;21.97;62.58;99274.94;3145895;28;20089;-66
2022/09/11 03:38:36;;;;;;;9.93;4.55;;;;;;;21.99;62.68;99280.09;3145574;28;20462;-66
2022/09/11 03:40:09;;;;;;;7.93;4.10;;;;;;;21.98;62.73;99276.63;3145367;28;20044;-66
2022/09/11 03:41:40;;;;;;;9.48;4.28;;;;;;;21.97;62.98;99277.59;3146198;28;20333;-67
2022/09/11 03:43:12;;;;;;;13.60;4.78;;;;;;;21.98;62.45;99283.75;3141511;28;20080;-67
2022/09/11 03:44:44;;;;;;;10.05;4.38;;;;;;;21.97;62.74;99276.75;3141075;28;20083;-67
2022/09/11 03:46:16;;;;;;;10.07;3.80;;;;;;;21.94;62.56;99277.06;3140776;28;20044;-67
2022/09/11 03:47:48;;;;;;;11.07;4.00;;;;;;;21.90;62.91;99279.19;3140189;28;20052;-67
2022/09/11 03:49:21;;;;;;;6.97;3.95;;;;;;;21.89;62.85;99279.34;3140079;28;20048;-67
2022/09/11 03:50:53;;;;;;;10.27;4.50;;;;;;;21.87;62.60;99274.22;3139980;28;20106;-66
2022/09/11 03:52:25;;;;;;;9.98;4.00;;;;;;;21.84;62.96;99279.81;3139866;28;20375;-67
2022/09/11 03:53:59;;;;;;;7.47;4.07;;;;;;;21.83;62.81;99286.13;3139644;28;20118;-67
2022/09/11 03:55:31;;;;;;;13.00;4.03;;;;;;;21.82;62.86;99287.09;3139584;28;20615;-67
2022/09/11 03:57:03;;;;;;;13.32;4.30;;;;;;;21.78;62.95;99283.91;3139500;28;20044;-67
2022/09/11 03:58:34;;;;;;;7.22;4.13;;;;;;;21.74;63.08;99279.06;3140005;28;20799;-67
2022/09/11 04:00:08;;;;;;;9.13;4.30;;;;;;;21.72;62.67;99286.34;3139611;28;20135;-66
2022/09/11 04:01:40;;;;;;;10.00;4.35;;;;;;;21.71;62.77;99284.66;3137307;28;20056;-67
2022/09/11 04:03:14;;;;;;;5.93;3.75;;;;;;;21.72;62.98;99284.53;3139976;28;20151;-67
2022/09/11 04:04:48;;;;;;;9.45;4.35;;;;;;;21.67;63.03;99286.81;3139619;28;20052;-66
2022/09/11 04:06:20;;;;;;;8.32;4.28;;;;;;;21.63;63.57;99292.56;3139879;28;20044;-67
2022/09/11 04:07:52;;;;;;;7.13;4.10;;;;;;;21.58;63.74;99285.91;3139493;28;20061;-66
2022/09/11 04:09:24;;;;;;;13.43;5.22;;;;;;;21.55;63.78;99290.66;3139760;28;20509;-66
2022/09/11 04:10:57;;;;;;;13.88;5.13;;;;;;;21.51;64.19;99290.16;3139659;28;20052;-66
2022/09/11 04:12:29;;;;;;;10.00;4.30;;;;;;;21.48;64.46;99293.09;3135671;28;20057;-67
2022/09/11 04:14:03;;;;;;;14.68;4.88;;;;;;;21.46;64.64;99292.41;3140293;28;20664;-68
2022/09/11 04:15:34;;;;;;;13.98;4.60;;;;;;;21.46;64.25;99297.72;3140878;28;20087;-68
2022/09/11 04:17:07;;;;;;;10.95;4.65;;;;;;;21.45;64.44;99304.00;3140348;28;20049;-67
2022/09/11 04:18:39;;;;;;;7.53;4.50;;;;;;;21.41;64.46;99291.19;3140592;28;20100;-67
2022/09/11 04:20:12;;;;;;;11.20;4.57;;;;;;;21.44;64.69;99296.19;3133564;28;20053;-67
2022/09/11 04:21:44;;;;;;;16.55;5.10;;;;;;;21.42;64.79;99298.19;3140221;28;20638;-68
2022/09/11 04:23:16;;;;;;;7.88;4.50;;;;;;;21.43;64.98;99299.84;3140507;28;20525;-67
2022/09/11 04:24:48;;;;;;;10.10;5.22;;;;;;;21.45;64.74;99292.59;3140197;28;20204;-67
2022/09/11 04:26:21;;;;;;;9.32;4.97;;;;;;;21.44;64.90;99302.31;3140396;28;20487;-67
2022/09/11 04:27:53;;;;;;;10.68;4.70;;;;;;;21.42;64.76;99292.88;3140389;28;20068;-68
2022/09/11 04:29:25;;;;;;;9.98;4.05;;;;;;;21.40;64.78;99295.66;3139922;28;20141;-67
2022/09/11 04:31:02;;;;;;;9.52;4.80;;;;;;;21.39;64.94;99301.13;3140170;28;20051;-67
2022/09/11 04:32:34;;;;;;;12.50;5.07;;;;;;;21.35;65.54;99287.31;3140442;28;20056;-68
2022/09/11 04:34:07;;;;;;;15.48;5.25;;;;;;;21.33;65.29;99291.94;3139893;28;20070;-68
2022/09/11 04:35:40;;;;;;;;;;;;;;;21.28;65.51;99286.25;3140875;28;20162;-67
2022/09/11 04:37:12;;;;;;;10.02;5.03;;;;;;;21.25;65.96;99286.56;3139692;28;19993;-67
2022/09/11 04:38:43;;;;;;;8.88;5.22;;;;;;;21.23;65.70;99286.69;3140228;28;20128;-68
2022/09/11 04:40:16;;;;;;;8.23;4.40;;;;;;;21.18;65.71;99272.22;3140194;28;20093;-68
2022/09/11 04:41:48;;;;;;;8.85;4.90;;;;;;;21.25;65.86;99278.59;3139747;28;20514;-68
2022/09/11 04:43:19;;;;;;;7.90;5.05;;;;;;;21.27;65.75;99285.41;3140332;28;20123;-65
2022/09/11 04:44:50;;;;;;;10.32;4.35;;;;;;;21.25;65.69;99278.59;3139398;28;20071;-65
2022/09/11 04:46:22;;;;;;;9.20;4.32;;;;;;;21.29;65.52;99283.44;3139532;28;20071;-65
2022/09/11 04:47:54;;;;;;;14.20;4.20;;;;;;;21.29;65.35;99278.13;3139977;28;20056;-67
2022/09/11 04:49:26;;;;;;;10.07;4.22;;;;;;;21.31;65.23;99280.66;3139975;28;20151;-67
2022/09/11 04:51:02;;;;;;;7.63;4.40;;;;;;;21.27;65.01;99274.00;3139766;28;20057;-68
2022/09/11 04:52:33;;;;;;;10.57;4.70;;;;;;;21.37;65.16;99285.38;3138879;28;20044;-67
2022/09/11 04:54:06;;;;;;;9.45;5.45;;;;;;;21.39;65.19;99283.41;3139710;28;20048;-68
2022/09/11 04:55:37;;;;;;;8.77;4.97;;;;;;;21.42;64.71;99287.59;3139801;28;20079;-68
2022/09/11 04:57:09;;;;;;;8.07;4.28;;;;;;;21.44;64.64;99291.72;3139550;28;20052;-68
2022/09/11 04:58:41;;;;;;;11.50;5.45;;;;;;;21.46;64.83;99283.63;3139855;28;20052;-68
2022/09/11 05:00:14;;;;;;;8.75;4.32;;;;;;;21.47;65.01;99290.59;3139898;28;20515;-67
2022/09/11 05:01:47;;;;;;;8.95;4.55;;;;;;;21.48;64.86;99287.81;3139681;28;20048;-68
2022/09/11 05:03:17;;;;;;;7.80;4.13;;;;;;;21.51;64.58;99287.50;3132946;28;20340;-67
2022/09/11 05:04:49;;;;;;;8.93;4.65;;;;;;;21.54;64.82;99286.38;3127581;28;20577;-68
2022/09/11 05:06:23;;;;;;;7.82;4.80;;;;;;;21.56;64.88;99285.22;3133434;28;20524;-68
2022/09/11 05:07:55;;;;;;;12.38;4.63;;;;;;;21.58;64.47;99299.13;3139819;28;20441;-68
2022/09/11 05:09:27;;;;;;;11.55;4.93;;;;;;;21.60;64.40;99295.53;3139710;28;20044;-67
2022/09/11 05:10:59;;;;;;;9.90;4.80;;;;;;;21.63;64.59;99287.28;3140325;28;20074;-68
2022/09/11 05:12:31;;;;;;;14.75;4.93;;;;;;;21.65;64.70;99298.53;3141129;28;20139;-67
2022/09/11 05:14:02;;;;;;;6.45;4.50;;;;;;;21.67;64.37;99296.56;3138388;28;20081;-66
2022/09/11 05:15:34;;;;;;;7.47;4.68;;;;;;;21.67;64.40;99297.41;3139635;28;20100;-66
2022/09/11 05:17:06;;;;;;;11.10;5.07;;;;;;;21.68;64.29;99292.94;3139507;28;20040;-64
2022/09/11 05:18:38;;;;;;;7.30;4.18;;;;;;;21.73;64.23;99302.09;3139805;28;20086;-64
2022/09/11 05:20:10;;;;;;;13.25;4.90;;;;;;;21.75;64.03;99294.00;3139532;28;20048;-67
2022/09/11 05:21:44;;;;;;;7.57;4.88;;;;;;;21.75;64.36;99296.66;3139868;28;20532;-67
2022/09/11 05:23:15;;;;;;;;;;;;;;;21.75;64.06;99300.13;3139701;28;20847;-67
2022/09/11 05:24:47;;;;;;;7.72;4.30;;;;;;;21.79;63.87;99303.28;3139896;28;20041;-67
2022/09/11 05:26:21;;;;;;;10.60;5.13;;;;;;;21.84;64.06;99293.06;3139607;28;20463;-68
2022/09/11 05:27:53;;;;;;;7.40;4.40;;;;;;;21.86;63.83;99295.56;3139201;28;20194;-67
2022/09/11 05:29:28;;;;;;;6.60;4.25;;;;;;;21.92;63.50;99297.63;3138800;28;20553;-67
2022/09/11 05:31:01;;;;;;;8.18;4.72;;;;;;;21.95;63.35;99299.97;3139661;28;20139;-68
2022/09/11 05:32:32;;;;;;;;;;;;;;;21.97;63.03;99297.97;3139450;28;20048;-68
2022/09/11 05:34:05;;;;;;;10.10;4.32;;;;;;;22.00;62.95;99295.00;3139444;28;19931;-68
2022/09/11 05:35:38;;;;;;;11.70;5.53;;;;;;;22.10;62.42;99297.56;3132630;28;20163;-68
2022/09/11 05:37:19;;;;;;;8.02;4.57;;;;;;;22.18;62.25;99289.69;3132016;28;20045;-68
2022/09/11 05:38:51;;;;;;;48.80;30.42;;;;;;;22.24;61.99;99289.91;3129742;28;20445;-70
2022/09/11 05:40:22;;;;;;;20.35;9.05;;;;;;;22.39;61.18;99291.97;3127888;28;20045;-68
2022/09/11 05:41:55;;;;;;;12.15;5.10;;;;;;;22.52;61.06;99297.69;3131966;28;20061;-68
2022/09/11 05:43:26;;;;;;;7.70;4.50;;;;;;;22.65;60.60;99294.59;3144454;28;20052;-69
2022/09/11 05:44:58;;;;;;;12.85;4.43;;;;;;;22.80;60.32;99294.81;3144052;28;20059;-66
2022/09/11 05:46:30;;;;;;;8.80;4.22;;;;;;;22.94;59.92;99284.44;3141672;28;20060;-65
2022/09/11 05:48:02;;;;;;;6.90;3.60;;;;;;;23.08;59.33;99290.97;3142360;28;20056;-69
2022/09/11 05:49:33;;;;;;;7.53;4.28;;;;;;;23.22;59.18;99289.50;3143695;28;20733;-66
2022/09/11 05:51:08;;;;;;;8.10;3.72;;;;;;;23.41;58.43;99285.72;3144773;28;20056;-70
2022/09/11 05:52:41;;;;;;;6.88;3.38;;;;;;;23.55;57.36;99285.06;3144266;28;20052;-65
2022/09/11 05:54:14;;;;;;;7.63;4.28;;;;;;;23.63;56.86;99286.88;3130935;28;20419;-65
2022/09/11 05:55:46;;;;;;;5.68;3.47;;;;;;;23.78;56.42;99293.25;3142305;28;20044;-64
2022/09/11 05:57:18;;;;;;;9.30;3.50;;;;;;;23.88;55.24;99295.75;3143803;28;20048;-64
2022/09/11 05:58:51;;;;;;;5.70;3.13;;;;;;;23.96;54.89;99286.91;3143859;28;20060;-64
2022/09/11 06:00:23;;;;;;;9.05;3.47;;;;;;;24.04;54.24;99289.56;3144410;28;20589;-65
2022/09/11 06:01:55;;;;;;;6.57;3.55;;;;;;;24.16;53.84;99300.69;3143579;28;20521;-64
2022/09/11 06:03:31;;;;;;;8.80;3.10;;;;;;;24.24;53.45;99293.53;3144795;28;20441;-65
2022/09/11 06:05:03;;;;;;;6.85;4.15;;;;;;;24.29;53.41;99299.16;3143814;28;20135;-64
2022/09/11 06:06:35;;;;;;;8.32;3.30;;;;;;;24.33;52.32;99293.50;3144536;28;20048;-65
2022/09/11 06:08:08;;;;;;;6.55;3.15;;;;;;;24.37;52.42;99300.13;3144677;28;20049;-66
2022/09/11 06:09:40;;;;;;;8.85;4.45;;;;;;;24.33;52.16;99281.03;3144125;28;20147;-68
2022/09/11 06:11:15;;;;;;;22.00;14.20;;;;;;;24.47;51.56;99300.81;3144103;28;20048;-66
2022/09/11 06:12:47;;;;;;;29.27;18.90;;;;;;;24.51;51.61;99299.47;3143541;28;20055;-64
2022/09/11 06:14:18;;;;;;;7.40;4.07;;;;;;;24.56;51.40;99294.47;3143037;28;20075;-64
2022/09/11 06:15:50;;;;;;;7.00;3.90;;;;;;;24.61;50.84;99296.59;3143590;28;20048;-62
2022/09/11 06:17:22;;;;;;;8.82;3.75;;;;;;;24.68;50.66;99295.75;3143214;28;20048;-63
2022/09/11 06:18:54;;;;;;;7.45;3.95;;;;;;;24.70;50.43;99298.25;3143620;28;20044;-63
2022/09/11 06:20:24;;;;;;;10.07;3.60;;;;;;;24.69;49.61;99304.56;3143681;28;20049;-63
2022/09/11 06:21:56;;;;;;;10.07;3.67;;;;;;;24.71;49.80;99308.72;3143506;28;20138;-63
2022/09/11 06:23:29;;;;;;;4.63;3.20;;;;;;;24.73;49.82;99303.25;3143054;28;20049;-63
2022/09/11 06:25:01;;;;;;;6.57;3.53;;;;;;;24.78;50.02;99308.03;3143356;28;20052;-61
2022/09/11 06:26:35;;;;;;;6.13;3.22;;;;;;;24.81;49.24;99307.69;3143594;28;20382;-61
2022/09/11 06:28:07;;;;;;;5.65;2.95;;;;;;;24.85;49.61;99299.19;3143826;28;20132;-61
2022/09/11 06:29:38;;;;;;;6.45;3.20;;;;;;;24.94;49.18;99306.13;3143570;28;20421;-62
2022/09/11 06:31:11;;;;;;;12.93;5.78;;;;;;;25.03;48.86;99306.94;3143568;28;20051;-63
2022/09/11 06:32:43;;;;;;;15.27;9.18;;;;;;;25.11;49.22;99308.69;3143950;28;20044;-65
2022/09/11 06:34:15;;;;;;;11.55;7.20;;;;;;;25.18;48.63;99302.53;3143679;28;20060;-63
2022/09/11 06:35:57;;;;;;;8.80;3.13;;;;;;;25.21;48.15;99298.69;3143201;28;20414;-60
2022/09/11 06:37:29;;;;;;;9.77;3.25;;;;;;;25.27;47.68;99307.84;3142449;28;20714;-59
2022/09/11 06:39:03;;;;;;;6.13;3.45;;;;;;;25.29;47.18;99309.31;3143084;28;20114;-61
2022/09/11 06:40:37;;;;;;;6.13;3.33;;;;;;;25.34;46.96;99303.44;3143712;28;20151;-61
2022/09/11 06:42:09;;;;;;;6.35;2.67;;;;;;;25.38;47.25;99305.59;3143425;28;20056;-62
2022/09/11 06:43:41;;;;;;;13.45;2.95;;;;;;;25.36;46.56;99304.94;3142698;28;20057;-61
2022/09/11 06:45:13;;;;;;;4.72;2.65;;;;;;;25.39;47.03;99309.09;3143124;28;20048;-59
2022/09/11 06:46:46;;;;;;;5.20;3.03;;;;;;;25.38;46.74;99304.78;3148678;28;20186;-62
2022/09/11 06:48:17;;;;;;;6.65;2.80;;;;;;;25.44;46.70;99306.72;3149818;28;20048;-60
2022/09/11 06:49:49;;;;;;;7.00;2.78;;;;;;;25.51;46.31;99307.66;3143953;28;20059;-60
2022/09/11 06:51:22;;;;;;;6.47;2.88;;;;;;;25.48;46.22;99300.03;3144452;28;20059;-59
2022/09/11 06:52:55;;;;;;;5.03;2.90;;;;;;;25.53;46.03;99302.16;3143291;28;20159;-59
2022/09/11 06:54:28;;;;;;;5.72;2.70;;;;;;;25.57;46.18;99304.28;3137464;28;20505;-58
2022/09/11 06:56:00;;;;;;;8.32;2.80;;;;;;;25.52;45.83;99290.66;3144207;28;20059;-59
2022/09/11 06:57:31;;;;;;;7.13;2.83;;;;;;;25.67;45.88;99309.38;3144114;28;20083;-59
2022/09/11 06:59:03;;;;;;;6.53;3.03;;;;;;;25.75;45.92;99311.16;3143995;28;20075;-60
2022/09/11 07:00:36;;;;;;;6.97;3.08;;;;;;;25.84;45.47;99310.09;3144475;28;20054;-60
2022/09/11 07:02:08;;;;;;;8.73;3.08;;;;;;;25.88;45.83;99306.06;3144033;28;20048;-61
2022/09/11 07:03:43;;;;;;;5.05;2.55;;;;;;;25.99;45.56;99310.13;3144295;28;20102;-59
2022/09/11 07:05:16;;;;;;;4.50;2.55;;;;;;;26.14;45.66;99316.34;3143951;28;20086;-59
2022/09/11 07:06:47;;;;;;;4.00;2.40;;;;;;;26.26;45.12;99308.72;3144119;28;20509;-60
2022/09/11 07:08:20;;;;;;;5.95;3.05;;;;;;;26.40;44.86;99315.91;3144329;28;20394;-60
2022/09/11 07:09:53;;;;;;;6.25;2.70;;;;;;;26.53;44.29;99309.94;3144288;28;20127;-60
2022/09/11 07:11:24;;;;;;;4.47;1.92;;;;;;;26.60;43.50;99315.41;3148319;28;20048;-59
2022/09/11 07:12:56;;;;;;;6.50;2.60;;;;;;;26.74;43.41;99312.72;3152486;28;20425;-60
2022/09/11 07:14:28;;;;;;;8.23;2.78;;;;;;;26.91;43.47;99312.50;3144175;28;20909;-59
2022/09/11 07:16:00;;;;;;;7.88;2.40;;;;;;;27.11;43.40;99329.63;3145260;28;20053;-59
2022/09/11 07:17:31;;;;;;;11.48;6.78;;;;;;;27.23;42.36;99320.13;3145520;28;20261;-61
2022/09/11 07:19:04;;;;;;;14.18;5.65;;;;;;;27.37;42.43;99317.59;3146301;28;20060;-61
2022/09/11 07:20:39;;;;;;;5.32;2.53;;;;;;;27.45;41.89;99309.47;3146584;28;20135;-61
2022/09/11 07:22:10;;;;;;;4.20;2.50;;;;;;;27.56;41.86;99321.50;3146330;28;20055;-63